createdAt,value
2022-08-24T00:00:49.681Z,82.17
2022-08-24T00:01:49.745Z,82.17
2022-08-24T00:02:49.767Z,82.17
2022-08-24T00:03:49.689Z,82.26
2022-08-24T00:04:50.645Z,82.37
2022-08-24T00:05:49.646Z,82.46
2022-08-24T00:06:49.630Z,82.67
2022-08-24T00:07:49.770Z,82.76
2022-08-24T00:08:49.604Z,82.97
2022-08-24T00:09:49.632Z,83.17
2022-08-24T00:10:49.596Z,83.27
2022-08-24T00:11:49.564Z,83.47
2022-08-24T00:12:49.552Z,83.67
2022-08-24T00:13:49.584Z,83.67
2022-08-24T00:14:49.633Z,83.77
2022-08-24T00:15:49.527Z,83.87
2022-08-24T00:16:49.545Z,84.01
2022-08-24T00:17:49.500Z,84.21
2022-08-24T00:18:49.508Z,84.31
2022-08-24T00:19:50.469Z,84.41
2022-08-24T00:20:49.495Z,84.51
2022-08-24T00:21:49.456Z,84.71
2022-08-24T00:22:49.438Z,84.91
2022-08-24T00:23:49.477Z,85.02
2022-08-24T00:24:49.409Z,85.16
2022-08-24T00:25:49.428Z,85.25
2022-08-24T00:26:49.403Z,85.46
2022-08-24T00:27:49.384Z,85.66
2022-08-24T00:28:49.369Z,85.66
2022-08-24T00:29:49.366Z,85.86
2022-08-24T00:30:49.379Z,85.86
2022-08-24T00:31:49.381Z,85.96
2022-08-24T00:32:49.332Z,86.06
2022-08-24T00:33:49.310Z,86.16
2022-08-24T00:34:58.957Z,86.46
2022-08-24T00:35:50.339Z,86.56
2022-08-24T00:36:49.291Z,86.66
2022-08-24T00:37:49.295Z,86.66
2022-08-24T00:38:49.260Z,86.66
2022-08-24T00:39:49.301Z,86.66
2022-08-24T00:40:49.244Z,86.76
2022-08-24T00:41:49.257Z,86.86
2022-08-24T00:42:49.223Z,86.86
2022-08-24T00:43:49.205Z,86.96
2022-08-24T00:44:49.193Z,86.96
2022-08-24T00:45:49.234Z,87.10
2022-08-24T00:46:49.163Z,87.21
2022-08-24T00:47:49.184Z,87.30
2022-08-24T00:48:49.160Z,87.30
2022-08-24T00:49:49.156Z,87.30
2022-08-24T00:50:49.125Z,87.30
2022-08-24T00:51:49.125Z,87.30
2022-08-24T00:52:49.135Z,87.30
2022-08-24T00:53:49.142Z,87.30
2022-08-24T00:54:49.077Z,87.30
2022-08-24T00:55:49.073Z,87.41
2022-08-24T00:56:49.088Z,87.30
2022-08-24T00:57:49.091Z,87.21
2022-08-24T00:58:56.821Z,87.21
2022-08-24T00:59:50.049Z,87.21
2022-08-24T01:00:49.083Z,87.10
2022-08-24T01:01:49.098Z,87.01
2022-08-24T01:02:49.157Z,86.90
2022-08-24T01:03:51.467Z,86.70
2022-08-24T01:04:50.015Z,86.80
2022-08-24T01:05:48.981Z,86.80
2022-08-24T01:06:48.957Z,86.70
2022-08-24T01:07:48.995Z,86.90
2022-08-24T01:08:48.958Z,87.04
2022-08-24T01:09:50.022Z,87.15
2022-08-24T01:10:48.911Z,87.24
2022-08-24T01:11:48.902Z,87.35
2022-08-24T01:13:00.122Z,87.45
2022-08-24T01:13:49.882Z,87.45
2022-08-24T01:14:48.891Z,87.51
2022-08-24T01:15:48.927Z,87.60
2022-08-24T01:16:48.865Z,87.41
2022-08-24T01:17:48.844Z,87.41
2022-08-24T01:18:48.834Z,87.30
2022-08-24T01:19:48.815Z,87.30
2022-08-24T01:20:48.824Z,87.41
2022-08-24T01:21:48.795Z,87.41
2022-08-24T01:22:48.839Z,87.35
2022-08-24T01:23:48.766Z,87.24
2022-08-24T01:24:48.746Z,87.24
2022-08-24T01:25:48.747Z,87.24
2022-08-24T01:26:48.745Z,87.04
2022-08-24T01:27:48.735Z,86.85
2022-08-24T01:28:48.721Z,86.85
2022-08-24T01:29:48.714Z,86.85
2022-08-24T01:30:48.697Z,86.85
2022-08-24T01:31:48.760Z,86.94
2022-08-24T01:32:48.700Z,86.94
2022-08-24T01:33:48.690Z,87.08
2022-08-24T01:34:48.649Z,87.08
2022-08-24T01:35:48.649Z,87.08
2022-08-24T01:36:48.630Z,87.08
2022-08-24T01:37:48.646Z,87.29
2022-08-24T01:38:48.611Z,87.39
2022-08-24T01:39:48.644Z,87.39
2022-08-24T01:40:48.583Z,87.49
2022-08-24T01:41:48.572Z,87.59
2022-08-24T01:42:48.590Z,87.69
2022-08-24T01:43:48.592Z,87.69
2022-08-24T01:44:48.560Z,87.79
2022-08-24T01:45:48.522Z,87.69
2022-08-24T01:46:48.696Z,87.69
2022-08-24T01:47:48.503Z,87.79
2022-08-24T01:48:48.511Z,87.59
2022-08-24T01:49:48.479Z,87.59
2022-08-24T01:50:48.474Z,87.59
2022-08-24T01:51:48.492Z,87.69
2022-08-24T01:53:04.799Z,87.79
2022-08-24T01:53:49.447Z,87.89
2022-08-24T01:54:48.454Z,87.99
2022-08-24T01:55:48.468Z,88.13
2022-08-24T01:56:48.470Z,88.34
2022-08-24T01:57:48.432Z,88.43
2022-08-24T01:58:48.378Z,88.64
2022-08-24T01:59:48.382Z,88.74
2022-08-24T02:00:48.363Z,88.74
2022-08-24T02:01:48.428Z,88.70
2022-08-24T02:02:48.416Z,88.49
2022-08-24T02:03:51.775Z,88.39
2022-08-24T02:04:48.324Z,88.29
2022-08-24T02:05:48.329Z,88.34
2022-08-24T02:06:48.288Z,88.43
2022-08-24T02:07:48.275Z,88.54
2022-08-24T02:08:48.326Z,88.74
2022-08-24T02:09:49.210Z,88.94
2022-08-24T02:10:52.952Z,89.04
2022-08-24T02:11:49.225Z,89.04
2022-08-24T02:12:48.230Z,89.14
2022-08-24T02:13:48.217Z,89.39
2022-08-24T02:14:48.265Z,89.59
2022-08-24T02:15:48.264Z,89.69
2022-08-24T02:16:48.214Z,89.79
2022-08-24T02:17:48.174Z,89.89
2022-08-24T02:18:48.183Z,89.99
2022-08-24T02:19:48.197Z,90.09
2022-08-24T02:20:48.139Z,90.09
2022-08-24T02:21:48.124Z,89.89
2022-08-24T02:22:48.147Z,89.79
2022-08-24T02:23:48.119Z,89.69
2022-08-24T02:24:48.129Z,89.79
2022-08-24T02:25:48.105Z,89.69
2022-08-24T02:26:48.066Z,89.69
2022-08-24T02:27:48.061Z,89.79
2022-08-24T02:28:48.052Z,89.79
2022-08-24T02:29:48.087Z,89.73
2022-08-24T02:30:48.086Z,89.73
2022-08-24T02:31:48.022Z,89.63
2022-08-24T02:32:48.009Z,89.53
2022-08-24T02:33:48.017Z,89.43
2022-08-24T02:34:48.005Z,89.53
2022-08-24T02:35:48.007Z,89.43
2022-08-24T02:36:47.984Z,89.23
2022-08-24T02:37:48.011Z,89.23
2022-08-24T02:38:47.951Z,89.23
2022-08-24T02:39:48.039Z,89.23
2022-08-24T02:40:47.927Z,89.03
2022-08-24T02:41:47.911Z,89.03
2022-08-24T02:42:47.914Z,89.03
2022-08-24T02:43:47.901Z,89.12
2022-08-24T02:44:47.904Z,89.12
2022-08-24T02:45:50.332Z,89.23
2022-08-24T02:46:47.946Z,89.23
2022-08-24T02:47:47.875Z,89.12
2022-08-24T02:48:56.506Z,89.23
2022-08-24T02:49:48.843Z,89.12
2022-08-24T02:50:47.805Z,89.03
2022-08-24T02:51:47.814Z,88.96
2022-08-24T02:52:47.796Z,88.96
2022-08-24T02:53:47.803Z,89.06
2022-08-24T02:54:47.765Z,89.03
2022-08-24T02:55:47.755Z,88.86
2022-08-24T02:56:47.745Z,88.62
2022-08-24T02:57:47.726Z,88.52
2022-08-24T02:58:47.761Z,88.56
2022-08-24T02:59:47.706Z,88.56
2022-08-24T03:00:47.697Z,88.56
2022-08-24T03:01:49.777Z,88.66
2022-08-24T03:02:47.753Z,88.66
2022-08-24T03:03:47.661Z,88.76
2022-08-24T03:04:49.490Z,88.96
2022-08-24T03:05:47.639Z,89.17
2022-08-24T03:06:47.679Z,89.37
2022-08-24T03:07:47.647Z,89.37
2022-08-24T03:08:49.348Z,89.37
2022-08-24T03:09:48.601Z,89.47
2022-08-24T03:10:47.599Z,89.47
2022-08-24T03:11:47.570Z,89.47
2022-08-24T03:12:47.600Z,89.57
2022-08-24T03:13:47.545Z,89.47
2022-08-24T03:14:47.551Z,89.37
2022-08-24T03:15:47.602Z,89.26
2022-08-24T03:16:47.513Z,89.26
2022-08-24T03:17:47.512Z,89.26
2022-08-24T03:18:47.538Z,89.17
2022-08-24T03:19:47.512Z,89.06
2022-08-24T03:20:47.494Z,89.06
2022-08-24T03:21:47.469Z,89.17
2022-08-24T03:22:47.478Z,89.26
2022-08-24T03:23:47.454Z,89.26
2022-08-24T03:24:47.459Z,89.26
2022-08-24T03:25:47.432Z,88.96
2022-08-24T03:26:47.416Z,88.86
2022-08-24T03:27:47.386Z,88.76
2022-08-24T03:28:47.387Z,88.56
2022-08-24T03:29:47.394Z,88.56
2022-08-24T03:30:48.348Z,88.56
2022-08-24T03:31:47.356Z,88.56
2022-08-24T03:32:47.387Z,88.56
2022-08-24T03:33:47.335Z,88.56
2022-08-24T03:34:47.357Z,88.56
2022-08-24T03:35:47.309Z,88.46
2022-08-24T03:36:47.328Z,88.26
2022-08-24T03:37:47.293Z,88.16
2022-08-24T03:38:47.329Z,88.16
2022-08-24T03:39:47.316Z,88.26
2022-08-24T03:40:47.294Z,88.26
2022-08-24T03:41:47.270Z,88.46
2022-08-24T03:42:47.260Z,88.56
2022-08-24T03:43:47.430Z,88.56
2022-08-24T03:44:48.191Z,88.36
2022-08-24T03:45:47.286Z,88.36
2022-08-24T03:46:47.254Z,88.36
2022-08-24T03:47:47.238Z,88.36
2022-08-24T03:48:48.152Z,88.46
2022-08-24T03:49:47.185Z,88.56
2022-08-24T03:50:47.163Z,88.70
2022-08-24T03:51:47.164Z,88.81
2022-08-24T03:52:47.134Z,88.90
2022-08-24T03:53:47.149Z,89.11
2022-08-24T03:54:47.113Z,89.31
2022-08-24T03:55:47.208Z,89.41
2022-08-24T03:56:47.085Z,89.41
2022-08-24T03:57:47.065Z,89.51
2022-08-24T03:58:47.087Z,89.41
2022-08-24T03:59:47.608Z,89.51
2022-08-24T04:00:47.137Z,89.41
2022-08-24T04:01:47.066Z,89.41
2022-08-24T04:02:47.073Z,89.51
2022-08-24T04:03:47.000Z,89.71
2022-08-24T04:04:46.999Z,89.86
2022-08-24T04:05:47.027Z,90.06
2022-08-24T04:06:46.991Z,90.16
2022-08-24T04:07:46.970Z,90.26
2022-08-24T04:08:47.947Z,90.16
2022-08-24T04:09:46.963Z,90.16
2022-08-24T04:10:46.941Z,90.16
2022-08-24T04:11:46.928Z,90.16
2022-08-24T04:12:46.910Z,90.26
2022-08-24T04:13:46.942Z,90.36
2022-08-24T04:14:46.925Z,90.36
2022-08-24T04:15:46.875Z,90.36
2022-08-24T04:16:46.920Z,90.16
2022-08-24T04:17:47.889Z,90.06
2022-08-24T04:18:46.843Z,90.06
2022-08-24T04:19:46.871Z,90.06
2022-08-24T04:20:46.851Z,90.16
2022-08-24T04:21:46.813Z,90.26
2022-08-24T04:22:46.829Z,90.36
2022-08-24T04:23:47.972Z,90.36
2022-08-24T04:24:46.778Z,90.56
2022-08-24T04:25:46.803Z,90.66
2022-08-24T04:26:46.813Z,90.66
2022-08-24T04:27:46.787Z,90.66
2022-08-24T04:28:46.759Z,90.77
2022-08-24T04:29:46.725Z,90.77
2022-08-24T04:30:46.716Z,90.86
2022-08-24T04:31:46.799Z,90.91
2022-08-24T04:32:46.701Z,90.86
2022-08-24T04:33:46.677Z,90.91
2022-08-24T04:34:46.677Z,90.91
2022-08-24T04:35:46.687Z,90.91
2022-08-24T04:36:46.681Z,90.91
2022-08-24T04:37:46.678Z,90.91
2022-08-24T04:38:46.628Z,91.01
2022-08-24T04:39:46.680Z,91.01
2022-08-24T04:40:48.592Z,91.01
2022-08-24T04:41:46.592Z,91.01
2022-08-24T04:42:46.584Z,91.11
2022-08-24T04:43:46.586Z,91.11
2022-08-24T04:44:46.575Z,91.01
2022-08-24T04:45:46.630Z,91.01
2022-08-24T04:46:46.554Z,91.01
2022-08-24T04:47:46.552Z,91.01
2022-08-24T04:48:46.518Z,91.01
2022-08-24T04:49:46.508Z,91.11
2022-08-24T04:50:46.715Z,91.11
2022-08-24T04:51:46.513Z,90.97
2022-08-24T04:52:46.523Z,90.97
2022-08-24T04:53:46.468Z,90.97
2022-08-24T04:54:46.447Z,90.86
2022-08-24T04:55:46.436Z,90.86
2022-08-24T04:56:46.453Z,90.66
2022-08-24T04:57:46.443Z,90.56
2022-08-24T04:58:46.436Z,90.56
2022-08-24T04:59:46.419Z,90.56
2022-08-24T05:00:46.472Z,90.56
2022-08-24T05:01:46.423Z,90.56
2022-08-24T05:02:46.397Z,90.46
2022-08-24T05:03:46.371Z,90.56
2022-08-24T05:04:46.334Z,90.66
2022-08-24T05:05:46.374Z,90.46
2022-08-24T05:06:46.350Z,90.46
2022-08-24T05:07:47.327Z,90.77
2022-08-24T05:08:46.351Z,90.92
2022-08-24T05:09:46.313Z,90.92
2022-08-24T05:10:46.280Z,90.01
2022-08-24T05:11:49.714Z,89.31
2022-08-24T05:12:46.287Z,89.26
2022-08-24T05:13:46.250Z,89.17
2022-08-24T05:14:46.249Z,88.86
2022-08-24T05:15:46.223Z,88.62
2022-08-24T05:16:53.232Z,88.42
2022-08-24T05:17:51.031Z,87.71
2022-08-24T05:18:46.185Z,87.62
2022-08-24T05:19:46.243Z,87.71
2022-08-24T05:20:46.186Z,87.37
2022-08-24T05:21:46.173Z,87.17
2022-08-24T05:22:46.152Z,87.27
2022-08-24T05:23:46.155Z,86.97
2022-08-24T05:24:46.138Z,86.87
2022-08-24T05:25:46.160Z,86.57
2022-08-24T05:26:46.096Z,86.26
2022-08-24T05:27:46.112Z,86.02
2022-08-24T05:28:46.087Z,85.92
2022-08-24T05:29:49.888Z,86.02
2022-08-24T05:30:46.093Z,85.82
2022-08-24T05:31:46.108Z,85.82
2022-08-24T05:32:46.070Z,85.72
2022-08-24T05:33:46.019Z,85.82
2022-08-24T05:34:46.015Z,85.72
2022-08-24T05:35:46.032Z,85.52
2022-08-24T05:36:45.986Z,85.28
2022-08-24T05:37:45.999Z,85.17
2022-08-24T05:38:45.977Z,85.28
2022-08-24T05:39:46.049Z,85.08
2022-08-24T05:40:45.960Z,85.08
2022-08-24T05:41:45.974Z,84.77
2022-08-24T05:42:45.922Z,84.67
2022-08-24T05:43:45.908Z,84.57
2022-08-24T05:44:45.970Z,84.43
2022-08-24T05:45:45.880Z,84.13
2022-08-24T05:46:45.970Z,84.13
2022-08-24T05:47:45.902Z,83.93
2022-08-24T05:48:52.498Z,83.83
2022-08-24T05:49:46.881Z,83.93
2022-08-24T05:50:45.884Z,83.63
2022-08-24T05:51:45.813Z,83.63
2022-08-24T05:52:45.829Z,83.73
2022-08-24T05:53:45.800Z,83.53
2022-08-24T05:54:45.843Z,83.73
2022-08-24T05:55:45.818Z,83.93
2022-08-24T05:56:45.797Z,83.73
2022-08-24T05:57:45.747Z,83.53
2022-08-24T05:58:45.780Z,83.23
2022-08-24T05:59:45.762Z,83.63
2022-08-24T06:00:45.745Z,83.53
2022-08-24T06:01:45.911Z,83.23
2022-08-24T06:02:45.816Z,83.23
2022-08-24T06:03:45.687Z,83.57
2022-08-24T06:04:45.675Z,83.93
2022-08-24T06:05:45.656Z,83.93
2022-08-24T06:06:48.663Z,83.83
2022-08-24T06:07:45.708Z,83.73
2022-08-24T06:08:45.657Z,83.63
2022-08-24T06:09:45.607Z,83.43
2022-08-24T06:10:45.608Z,83.23
2022-08-24T06:11:45.629Z,83.33
2022-08-24T06:12:45.580Z,83.23
2022-08-24T06:13:45.600Z,83.23
2022-08-24T06:14:45.582Z,83.33
2022-08-24T06:15:59.417Z,83.33
2022-08-24T06:16:46.584Z,83.63
2022-08-24T06:17:45.614Z,83.53
2022-08-24T06:18:45.512Z,83.73
2022-08-24T06:19:45.545Z,83.73
2022-08-24T06:20:45.496Z,83.73
2022-08-24T06:21:45.484Z,83.69
2022-08-24T06:22:45.474Z,83.69
2022-08-24T06:23:45.454Z,83.59
2022-08-24T06:24:45.472Z,83.35
2022-08-24T06:25:45.433Z,83.25
2022-08-24T06:26:50.308Z,83.04
2022-08-24T06:27:46.434Z,82.90
2022-08-24T06:28:45.409Z,82.60
2022-08-24T06:29:45.384Z,82.20
2022-08-24T06:30:45.411Z,81.87
2022-08-24T06:31:45.440Z,81.67
2022-08-24T06:32:45.358Z,81.26
2022-08-24T06:33:45.383Z,80.86
2022-08-24T06:34:45.349Z,80.42
2022-08-24T06:35:47.166Z,80.02
2022-08-24T06:36:45.306Z,79.52
2022-08-24T06:37:45.338Z,79.12
2022-08-24T06:38:45.498Z,79.02
2022-08-24T06:39:45.321Z,78.81
2022-08-24T06:40:45.282Z,78.22
2022-08-24T06:41:45.307Z,77.87
2022-08-24T06:42:45.248Z,77.98
2022-08-24T06:43:45.252Z,77.78
2022-08-24T06:44:45.220Z,77.87
2022-08-24T06:45:45.219Z,77.48
2022-08-24T06:46:45.273Z,77.17
2022-08-24T06:47:45.209Z,76.87
2022-08-24T06:48:45.176Z,76.37
2022-08-24T06:49:45.192Z,76.57
2022-08-24T06:50:45.204Z,76.57
2022-08-24T06:51:50.002Z,76.24
2022-08-24T06:52:46.184Z,75.93
2022-08-24T06:53:45.134Z,75.74
2022-08-24T06:54:45.129Z,75.43
2022-08-24T06:55:45.155Z,75.43
2022-08-24T06:56:45.090Z,75.04
2022-08-24T06:57:48.045Z,74.43
2022-08-24T06:58:46.108Z,73.80
2022-08-24T06:59:45.122Z,73.50
2022-08-24T07:00:45.040Z,73.00
2022-08-24T07:01:45.123Z,73.10
2022-08-24T07:02:45.043Z,73.19
2022-08-24T07:03:45.014Z,73.19
2022-08-24T07:04:45.006Z,72.86
2022-08-24T07:05:45.027Z,72.96
2022-08-24T07:06:45.008Z,72.76
2022-08-24T07:07:44.994Z,72.66
2022-08-24T07:08:44.957Z,72.53
2022-08-24T07:09:44.973Z,71.42
2022-08-24T07:10:44.973Z,70.43
2022-08-24T07:11:45.000Z,70.23
2022-08-24T07:12:44.919Z,70.12
2022-08-24T07:13:44.928Z,69.69
2022-08-24T07:14:44.924Z,69.29
2022-08-24T07:15:44.997Z,69.39
2022-08-24T07:16:44.931Z,68.59
2022-08-24T07:17:44.863Z,68.76
2022-08-24T07:18:49.893Z,68.26
2022-08-24T07:19:45.857Z,68.16
2022-08-24T07:20:44.847Z,67.56
2022-08-24T07:21:44.828Z,67.83
2022-08-24T07:22:44.825Z,67.63
2022-08-24T07:23:44.804Z,67.43
2022-08-24T07:24:44.786Z,66.73
2022-08-24T07:25:49.629Z,66.73
2022-08-24T07:26:45.795Z,66.80
2022-08-24T07:27:44.756Z,66.80
2022-08-24T07:28:44.750Z,66.70
2022-08-24T07:29:52.745Z,66.09
2022-08-24T07:30:45.762Z,66.06
2022-08-24T07:31:44.795Z,66.17
2022-08-24T07:32:44.713Z,65.97
2022-08-24T07:33:44.702Z,66.27
2022-08-24T07:34:44.688Z,66.27
2022-08-24T07:35:44.664Z,65.83
2022-08-24T07:36:44.975Z,65.94
2022-08-24T07:37:44.669Z,65.53
2022-08-24T07:38:44.623Z,65.14
2022-08-24T07:39:44.644Z,65.14
2022-08-24T07:41:09.311Z,64.51
2022-08-24T07:42:45.587Z,63.41
2022-08-24T07:43:44.583Z,64.01
2022-08-24T07:44:44.587Z,63.88
2022-08-24T07:45:44.573Z,63.78
2022-08-24T07:46:44.648Z,63.28
2022-08-24T07:47:53.678Z,62.88
2022-08-24T07:48:45.521Z,62.75
2022-08-24T07:49:44.526Z,62.26
2022-08-24T07:50:44.535Z,61.66
2022-08-24T07:51:46.925Z,61.46
2022-08-24T07:52:44.474Z,61.13
2022-08-24T07:53:53.562Z,60.53
2022-08-24T07:54:45.485Z,60.53
2022-08-24T07:55:46.209Z,60.83
2022-08-24T07:56:44.428Z,60.33
2022-08-24T07:57:44.457Z,59.81
2022-08-24T07:58:44.423Z,60.50
2022-08-24T07:59:44.414Z,60.90
2022-08-24T08:00:44.387Z,60.50
2022-08-24T08:01:44.478Z,60.00
2022-08-24T08:02:44.464Z,61.00
2022-08-24T08:03:44.390Z,61.67
2022-08-24T08:04:44.365Z,61.07
2022-08-24T08:05:44.347Z,61.07
2022-08-24T08:06:44.398Z,60.08
2022-08-24T08:07:45.698Z,59.65
2022-08-24T08:08:44.292Z,59.65
2022-08-24T08:09:44.300Z,60.35
2022-08-24T08:10:44.335Z,59.55
2022-08-24T08:11:44.370Z,58.75
2022-08-24T08:12:44.263Z,59.32
2022-08-24T08:13:44.265Z,59.12
2022-08-24T08:14:44.232Z,59.12
2022-08-24T08:15:44.257Z,60.02
2022-08-24T08:16:44.243Z,59.92
2022-08-24T08:17:44.324Z,58.90
2022-08-24T08:18:45.503Z,58.70
2022-08-24T08:19:44.179Z,57.01
2022-08-24T08:20:44.166Z,56.81
2022-08-24T08:21:44.231Z,56.71
2022-08-24T08:22:44.159Z,56.61
2022-08-24T08:23:44.197Z,56.51
2022-08-24T08:24:44.147Z,55.89
2022-08-24T08:25:47.325Z,58.57
2022-08-24T08:26:44.134Z,57.87
2022-08-24T08:28:44.089Z,56.26
2022-08-24T08:29:44.107Z,56.26
2022-08-24T08:30:44.078Z,56.16
2022-08-24T08:31:44.072Z,56.56
2022-08-24T08:32:44.160Z,53.98
2022-08-24T08:33:44.033Z,53.28
2022-08-24T08:34:44.026Z,53.66
2022-08-24T08:35:44.021Z,53.36
2022-08-24T08:36:44.037Z,54.75
2022-08-24T08:37:44.004Z,53.75
2022-08-24T08:38:43.996Z,55.54
2022-08-24T08:39:45.632Z,55.24
2022-08-24T08:40:43.981Z,54.45
2022-08-24T08:41:43.999Z,53.66
2022-08-24T08:42:43.975Z,53.66
2022-08-24T08:43:43.945Z,53.36
2022-08-24T08:44:43.924Z,53.36
2022-08-24T08:45:43.957Z,54.02
2022-08-24T08:46:43.910Z,53.03
2022-08-24T08:47:43.962Z,52.94
2022-08-24T08:48:43.883Z,52.54
2022-08-24T08:49:43.977Z,52.73
2022-08-24T08:50:43.877Z,52.24
2022-08-24T08:51:43.851Z,53.43
2022-08-24T08:52:43.847Z,53.53
2022-08-24T08:53:43.831Z,52.73
2022-08-24T08:54:44.428Z,52.91
2022-08-24T08:55:43.863Z,53.20
2022-08-24T08:56:43.818Z,53.01
2022-08-24T08:57:43.788Z,52.91
2022-08-24T08:58:46.743Z,52.91
2022-08-24T08:59:44.792Z,52.81
2022-08-24T09:00:43.750Z,53.48
2022-08-24T09:01:46.623Z,53.58
2022-08-24T09:02:43.754Z,52.59
2022-08-24T09:03:43.714Z,53.58
2022-08-24T09:04:43.753Z,53.97
2022-08-24T09:05:43.755Z,52.39
2022-08-24T09:06:43.678Z,52.78
2022-08-24T09:07:43.677Z,54.07
2022-08-24T09:08:43.688Z,54.37
2022-08-24T09:09:44.646Z,55.06
2022-08-24T09:10:43.674Z,55.36
2022-08-24T09:11:43.645Z,53.18
2022-08-24T09:12:43.614Z,55.16
2022-08-24T09:13:43.617Z,54.57
2022-08-24T09:14:43.591Z,53.58
2022-08-24T09:15:43.608Z,53.97
2022-08-24T09:16:43.611Z,54.67
2022-08-24T09:17:43.607Z,53.65
2022-08-24T09:18:43.562Z,53.35
2022-08-24T09:19:43.635Z,52.96
2022-08-24T09:20:43.559Z,52.46
2022-08-24T09:21:43.508Z,52.26
2022-08-24T09:22:43.516Z,52.17
2022-08-24T09:23:43.509Z,51.65
2022-08-24T09:24:43.533Z,51.94
2022-08-24T09:25:43.490Z,52.14
2022-08-24T09:26:43.478Z,52.64
2022-08-24T09:27:43.451Z,52.54
2022-08-24T09:28:43.756Z,53.13
2022-08-24T09:29:43.432Z,53.23
2022-08-24T09:30:44.900Z,53.80
2022-08-24T09:31:43.434Z,52.41
2022-08-24T09:32:43.419Z,53.20
2022-08-24T09:33:43.407Z,53.50
2022-08-24T09:34:43.375Z,54.29
2022-08-24T09:35:43.377Z,53.80
2022-08-24T09:36:43.391Z,52.31
2022-08-24T09:37:43.553Z,51.13
2022-08-24T09:38:43.337Z,51.42
2022-08-24T09:39:43.432Z,52.61
2022-08-24T09:40:43.326Z,51.70
2022-08-24T09:41:43.336Z,52.69
2022-08-24T09:42:43.323Z,51.40
2022-08-24T09:43:43.294Z,52.19
2022-08-24T09:44:43.264Z,52.78
2022-08-24T09:45:43.283Z,52.39
2022-08-24T09:46:43.259Z,52.69
2022-08-24T09:47:43.260Z,51.40
2022-08-24T09:48:43.260Z,51.67
2022-08-24T09:49:43.211Z,52.17
2022-08-24T09:50:43.199Z,51.77
2022-08-24T09:51:43.202Z,51.87
2022-08-24T09:52:43.172Z,52.36
2022-08-24T09:53:43.169Z,51.67
2022-08-24T09:54:43.204Z,51.94
2022-08-24T09:55:43.169Z,52.63
2022-08-24T09:56:43.141Z,52.24
2022-08-24T09:58:01.032Z,51.54
2022-08-24T09:58:44.113Z,51.75
2022-08-24T09:59:43.128Z,51.05
2022-08-24T10:00:43.127Z,51.62
2022-08-24T10:01:43.158Z,50.54
2022-08-24T10:02:43.132Z,50.93
2022-08-24T10:03:43.858Z,51.03
2022-08-24T10:04:43.199Z,50.24
2022-08-24T10:05:43.164Z,51.40
2022-08-24T10:06:43.105Z,50.90
2022-08-24T10:07:43.032Z,51.99
2022-08-24T10:08:43.009Z,52.68
2022-08-24T10:09:43.007Z,52.61
2022-08-24T10:10:43.009Z,53.59
2022-08-24T10:11:43.037Z,54.38
2022-08-24T10:12:43.079Z,55.07
2022-08-24T10:13:42.971Z,55.47
2022-08-24T10:14:42.971Z,54.19
2022-08-24T10:15:42.934Z,54.78
2022-08-24T10:16:42.957Z,54.58
2022-08-24T10:17:42.931Z,55.57
2022-08-24T10:18:42.915Z,56.46
2022-08-24T10:19:43.015Z,55.96
2022-08-24T10:20:42.886Z,56.85
2022-08-24T10:21:42.860Z,54.68
2022-08-24T10:22:42.893Z,53.69
2022-08-24T10:23:42.852Z,53.39
2022-08-24T10:24:42.832Z,55.47
2022-08-24T10:25:42.826Z,55.27
2022-08-24T10:26:42.840Z,56.16
2022-08-24T10:27:42.804Z,55.18
2022-08-24T10:28:42.828Z,53.99
2022-08-24T10:29:42.807Z,53.69
2022-08-24T10:30:42.782Z,53.59
2022-08-24T10:31:42.821Z,53.59
2022-08-24T10:32:42.762Z,53.10
2022-08-24T10:33:42.796Z,52.87
2022-08-24T10:34:42.788Z,52.09
2022-08-24T10:35:42.719Z,51.69
2022-08-24T10:36:42.707Z,52.56
2022-08-24T10:37:43.601Z,51.77
2022-08-24T10:38:42.695Z,52.46
2022-08-24T10:39:42.854Z,50.68
2022-08-24T10:40:42.797Z,50.26
2022-08-24T10:41:42.666Z,50.26
2022-08-24T10:42:42.656Z,50.26
2022-08-24T10:43:42.641Z,51.42
2022-08-24T10:44:42.633Z,50.93
2022-08-24T10:45:42.711Z,51.52
2022-08-24T10:46:43.603Z,50.34
2022-08-24T10:47:42.603Z,50.73
2022-08-24T10:48:42.595Z,49.65
2022-08-24T10:49:42.567Z,49.23
2022-08-24T10:50:42.572Z,51.00
2022-08-24T10:51:42.615Z,49.82
2022-08-24T10:52:42.566Z,50.81
2022-08-24T10:53:42.556Z,50.31
2022-08-24T10:54:43.231Z,48.35
2022-08-24T10:55:42.551Z,47.36
2022-08-24T10:56:42.526Z,48.03
2022-08-24T10:57:42.507Z,48.91
2022-08-24T10:58:42.517Z,48.32
2022-08-24T10:59:42.496Z,47.92
2022-08-24T11:00:42.541Z,48.71
2022-08-24T11:01:42.441Z,49.50
2022-08-24T11:02:42.443Z,49.68
2022-08-24T11:03:42.470Z,49.11
2022-08-24T11:04:42.434Z,49.18
2022-08-24T11:05:42.585Z,48.10
2022-08-24T11:06:42.577Z,47.91
2022-08-24T11:07:42.414Z,48.69
2022-08-24T11:08:42.704Z,49.38
2022-08-24T11:09:42.595Z,49.68
2022-08-24T11:10:43.299Z,48.77
2022-08-24T11:11:44.001Z,49.06
2022-08-24T11:12:42.316Z,47.19
2022-08-24T11:13:42.323Z,48.67
2022-08-24T11:14:42.328Z,49.06
2022-08-24T11:15:42.288Z,48.86
2022-08-24T11:16:42.377Z,49.06
2022-08-24T11:17:42.350Z,49.16
2022-08-24T11:18:42.267Z,47.88
2022-08-24T11:19:42.239Z,48.39
2022-08-24T11:20:42.255Z,49.35
2022-08-24T11:21:42.250Z,49.16
2022-08-24T11:22:42.228Z,49.35
2022-08-24T11:23:42.232Z,49.16
2022-08-24T11:24:42.214Z,49.65
2022-08-24T11:25:42.204Z,48.39
2022-08-24T11:26:42.192Z,48.49
2022-08-24T11:27:42.163Z,48.49
2022-08-24T11:28:42.208Z,47.61
2022-08-24T11:29:42.157Z,48.00
2022-08-24T11:30:42.131Z,48.49
2022-08-24T11:31:42.130Z,48.39
2022-08-24T11:32:42.125Z,48.77
2022-08-24T11:33:42.111Z,49.06
2022-08-24T11:34:42.128Z,47.29
2022-08-24T11:35:42.108Z,47.39
2022-08-24T11:36:42.081Z,48.27
2022-08-24T11:37:42.072Z,48.37
2022-08-24T11:38:45.949Z,48.37
2022-08-24T11:39:42.047Z,48.08
2022-08-24T11:40:42.023Z,45.92
2022-08-24T11:41:42.062Z,47.69
2022-08-24T11:42:42.006Z,47.58
2022-08-24T11:43:41.985Z,48.57
2022-08-24T11:44:41.990Z,47.78
2022-08-24T11:45:41.969Z,48.47
2022-08-24T11:46:42.007Z,47.88
2022-08-24T11:47:41.970Z,47.00
2022-08-24T11:48:43.717Z,46.78
2022-08-24T11:49:41.936Z,47.07
2022-08-24T11:50:41.918Z,46.97
2022-08-24T11:51:41.905Z,45.89
2022-08-24T11:52:41.931Z,46.19
2022-08-24T11:54:41.882Z,45.09
2022-08-24T11:55:46.973Z,44.79
2022-08-24T11:56:42.879Z,44.49
2022-08-24T11:57:47.596Z,44.01
2022-08-24T11:58:42.891Z,43.51
2022-08-24T11:59:41.823Z,43.71
2022-08-24T12:00:41.816Z,45.97
2022-08-24T12:01:44.681Z,46.26
2022-08-24T12:02:41.850Z,47.05
2022-08-24T12:03:41.780Z,47.05
2022-08-24T12:04:41.805Z,47.64
2022-08-24T12:05:41.762Z,47.17
2022-08-24T12:06:41.748Z,46.97
2022-08-24T12:07:41.740Z,47.56
2022-08-24T12:08:41.747Z,48.05
2022-08-24T12:09:41.727Z,47.66
2022-08-24T12:10:41.750Z,48.18
2022-08-24T12:11:41.719Z,47.69
2022-08-24T12:12:41.690Z,45.52
2022-08-24T12:13:41.680Z,46.50
2022-08-24T12:14:41.690Z,47.27
2022-08-24T12:15:41.719Z,47.76
2022-08-24T12:16:41.685Z,47.66
2022-08-24T12:17:41.663Z,46.58
2022-08-24T12:18:41.621Z,45.70
2022-08-24T12:19:41.627Z,45.99
2022-08-24T12:20:41.647Z,47.07
2022-08-24T12:21:41.603Z,47.27
2022-08-24T12:22:41.585Z,46.85
2022-08-24T12:23:41.571Z,47.15
2022-08-24T12:24:41.573Z,46.75
2022-08-24T12:25:41.562Z,45.97
2022-08-24T12:26:41.596Z,46.44
2022-08-24T12:27:41.561Z,44.67
2022-08-24T12:28:41.575Z,44.35
2022-08-24T12:29:41.515Z,42.98
2022-08-24T12:30:41.514Z,42.37
2022-08-24T12:31:41.554Z,43.43
2022-08-24T12:32:41.508Z,43.04
2022-08-24T12:33:41.511Z,43.70
2022-08-24T12:34:41.463Z,44.17
2022-08-24T12:35:41.450Z,43.88
2022-08-24T12:36:41.456Z,43.37
2022-08-24T12:37:41.427Z,43.24
2022-08-24T12:38:41.442Z,43.44
2022-08-24T12:39:41.419Z,43.52
2022-08-24T12:40:41.392Z,41.27
2022-08-24T12:41:41.382Z,40.95
2022-08-24T12:42:41.373Z,41.52
2022-08-24T12:43:41.381Z,40.62
2022-08-24T12:44:41.437Z,40.41
2022-08-24T12:45:41.334Z,40.39
2022-08-24T12:46:41.346Z,40.66
2022-08-24T12:47:41.325Z,40.95
2022-08-24T12:48:41.353Z,39.59
2022-08-24T12:49:41.315Z,40.48
2022-08-24T12:50:41.315Z,38.35
2022-08-24T12:51:41.307Z,39.16
2022-08-24T12:52:41.276Z,40.53
2022-08-24T12:53:41.271Z,41.91
2022-08-24T12:54:41.269Z,41.82
2022-08-24T12:55:41.250Z,41.02